createdAt,value
2024-01-22T00:00:21.838Z,7.40
2024-01-22T00:02:52.366Z,6.90
2024-01-22T00:05:22.980Z,7.00
2024-01-22T00:07:53.422Z,8.90
2024-01-22T00:10:23.852Z,10.60
2024-01-22T00:12:54.789Z,10.50
2024-01-22T00:15:25.304Z,7.30
2024-01-22T00:17:55.838Z,8.40
2024-01-22T00:20:26.383Z,6.60
2024-01-22T00:22:57.148Z,6.60
2024-01-22T00:25:27.714Z,6.70
2024-01-22T00:27:58.455Z,5.80
2024-01-22T00:30:28.988Z,8.60
2024-01-22T00:33:00.340Z,6.60
2024-01-22T00:35:30.984Z,8.20
2024-01-22T00:38:01.424Z,9.20
2024-01-22T00:40:31.883Z,7.90
2024-01-22T00:43:02.288Z,4.40
2024-01-22T00:45:32.793Z,7.80
2024-01-22T00:48:03.478Z,6.60
2024-01-22T00:50:34.150Z,6.40
2024-01-22T00:53:04.841Z,9.00
2024-01-22T00:55:35.446Z,7.30
2024-01-22T00:58:06.114Z,7.80
2024-01-22T01:00:36.497Z,8.60
2024-01-22T01:03:07.849Z,7.40
2024-01-22T01:05:38.690Z,5.80
2024-01-22T01:08:10.120Z,7.90
2024-01-22T01:10:40.532Z,6.40
2024-01-22T01:13:10.939Z,6.60
2024-01-22T01:15:41.321Z,8.30
2024-01-22T01:18:11.848Z,7.20
2024-01-22T01:20:42.413Z,6.60
2024-01-22T01:23:13.162Z,5.20
2024-01-22T01:25:43.704Z,5.40
2024-01-22T01:28:14.169Z,6.80
2024-01-22T01:30:44.705Z,8.00
2024-01-22T01:33:15.293Z,6.80
2024-01-22T01:35:47.233Z,9.00
2024-01-22T01:38:17.673Z,5.60
2024-01-22T01:40:48.538Z,7.60
2024-01-22T01:43:21.191Z,7.10
2024-01-22T01:45:51.552Z,5.40
2024-01-22T01:48:22.463Z,5.80
2024-01-22T01:50:53.133Z,5.60
2024-01-22T01:53:24.227Z,6.50
2024-01-22T01:55:55.952Z,4.90
2024-01-22T01:58:26.517Z,5.90
2024-01-22T02:00:59.350Z,8.90
2024-01-22T02:03:29.840Z,4.90
2024-01-22T02:06:00.712Z,6.60
2024-01-22T02:08:31.143Z,5.30
2024-01-22T02:11:01.556Z,6.10
2024-01-22T02:13:32.311Z,4.70
2024-01-22T02:16:02.739Z,8.60
2024-01-22T02:18:33.303Z,7.90
2024-01-22T02:21:03.861Z,4.90
2024-01-22T02:23:34.343Z,5.60
2024-01-22T02:26:04.959Z,5.70
2024-01-22T02:28:35.381Z,6.80
2024-01-22T02:31:08.284Z,6.00
2024-01-22T02:33:38.926Z,3.30
2024-01-22T02:36:10.602Z,5.10
2024-01-22T02:38:41.047Z,6.30
2024-01-22T02:41:11.495Z,6.50
2024-01-22T02:43:41.932Z,4.50
2024-01-22T02:46:12.412Z,7.10
2024-01-22T02:48:43.202Z,7.60
2024-01-22T02:51:13.878Z,7.90
2024-01-22T02:53:44.501Z,5.50
2024-01-22T02:56:20.672Z,6.10
2024-01-22T02:58:51.151Z,5.30
2024-01-22T03:01:21.781Z,5.60
2024-01-22T03:03:52.444Z,6.30
2024-01-22T03:06:23.085Z,6.10
2024-01-22T03:08:53.665Z,5.10
2024-01-22T03:11:24.159Z,6.10
2024-01-22T03:13:54.602Z,4.40
2024-01-22T03:16:25.007Z,11.40
2024-01-22T03:18:55.543Z,11.40
2024-01-22T03:21:26.026Z,5.40
2024-01-22T03:23:56.444Z,4.60
2024-01-22T03:26:27.001Z,3.90
2024-01-22T03:28:58.270Z,6.10
2024-01-22T03:31:30.629Z,5.80
2024-01-22T03:34:01.295Z,7.60
2024-01-22T03:36:32.464Z,6.30
2024-01-22T03:39:03.041Z,6.60
2024-01-22T03:41:33.705Z,5.70
2024-01-22T03:44:07.323Z,10.00
2024-01-22T03:46:37.706Z,7.10
2024-01-22T03:49:08.398Z,5.70
2024-01-22T03:51:38.954Z,5.40
2024-01-22T03:54:09.648Z,6.80
2024-01-22T03:56:40.324Z,7.70
2024-01-22T03:59:11.418Z,6.70
2024-01-22T04:01:41.812Z,7.90
2024-01-22T04:04:12.826Z,3.30
2024-01-22T04:06:43.440Z,10.30
2024-01-22T04:09:14.175Z,5.60
2024-01-22T04:11:44.758Z,5.30
2024-01-22T04:14:17.688Z,7.30
2024-01-22T04:16:48.707Z,4.50
2024-01-22T04:19:19.244Z,8.00
2024-01-22T04:21:50.311Z,6.40
2024-01-22T04:24:20.774Z,4.60
2024-01-22T04:26:51.238Z,4.00
2024-01-22T04:29:21.771Z,6.00
2024-01-22T04:31:52.233Z,4.20
2024-01-22T04:34:22.876Z,6.30
2024-01-22T04:36:53.614Z,3.70
2024-01-22T04:39:24.896Z,3.50
2024-01-22T04:41:55.485Z,8.50
2024-01-22T04:44:28.685Z,3.90
2024-01-22T04:46:59.671Z,5.50
2024-01-22T04:49:32.476Z,4.60
2024-01-22T04:52:03.016Z,6.90
2024-01-22T04:54:33.436Z,5.90
2024-01-22T04:57:04.027Z,7.50
2024-01-22T04:59:34.603Z,5.80
2024-01-22T05:02:05.241Z,3.60
2024-01-22T05:04:35.850Z,6.70
2024-01-22T05:07:06.682Z,6.70
2024-01-22T05:09:37.100Z,4.40
2024-01-22T05:12:08.582Z,6.20
2024-01-22T05:14:41.741Z,4.50
2024-01-22T05:17:12.755Z,5.70
2024-01-22T05:19:43.284Z,5.90
2024-01-22T05:22:13.877Z,4.90
2024-01-22T05:24:44.308Z,4.60
2024-01-22T05:27:14.895Z,4.40
2024-01-22T05:29:45.871Z,5.10
2024-01-22T05:32:17.065Z,6.00
2024-01-22T05:34:47.622Z,5.00
2024-01-22T05:37:18.148Z,5.30
2024-01-22T05:39:48.562Z,4.30
2024-01-22T05:42:19.035Z,3.40
2024-01-22T05:44:49.627Z,3.80
2024-01-22T05:47:20.487Z,5.70
2024-01-22T05:49:51.132Z,3.50
2024-01-22T05:52:21.965Z,3.10
2024-01-22T05:54:52.446Z,2.90
2024-01-22T05:57:27.735Z,3.60
2024-01-22T06:00:00.488Z,3.30
2024-01-22T06:02:32.024Z,3.90
2024-01-22T06:05:02.498Z,5.00
2024-01-22T06:07:33.134Z,8.90
2024-01-22T06:10:08.509Z,4.40
2024-01-22T06:12:39.672Z,4.30
2024-01-22T06:15:11.484Z,2.80
2024-01-22T06:17:41.971Z,3.30
2024-01-22T06:20:14.507Z,3.20
2024-01-22T06:22:44.951Z,5.40
2024-01-22T06:25:15.694Z,6.40
2024-01-22T06:27:46.679Z,2.40
2024-01-22T06:30:18.572Z,6.50
2024-01-22T06:32:49.222Z,5.20
2024-01-22T06:35:19.838Z,3.40
2024-01-22T06:37:50.265Z,3.30
2024-01-22T06:40:20.757Z,3.60
2024-01-22T06:42:51.341Z,4.40
2024-01-22T06:45:22.048Z,3.90
2024-01-22T06:47:53.315Z,3.60
2024-01-22T06:50:24.702Z,3.90
2024-01-22T06:52:55.280Z,5.30
2024-01-22T06:55:26.446Z,2.90
2024-01-22T06:57:56.903Z,4.10
2024-01-22T07:00:28.089Z,7.00
2024-01-22T07:03:00.023Z,3.20
2024-01-22T07:05:30.895Z,2.70
2024-01-22T07:08:01.562Z,3.10
2024-01-22T07:10:33.185Z,4.00
2024-01-22T07:13:04.626Z,3.90
2024-01-22T07:15:35.100Z,4.00
2024-01-22T07:18:06.335Z,2.70
2024-01-22T07:20:37.318Z,3.80
2024-01-22T07:23:08.177Z,4.30
2024-01-22T07:25:38.636Z,3.50
2024-01-22T07:28:09.632Z,3.00
2024-01-22T07:30:40.102Z,3.60
2024-01-22T07:33:10.691Z,4.70
2024-01-22T07:35:41.288Z,4.10
2024-01-22T07:38:11.819Z,3.10
2024-01-22T07:40:42.210Z,5.90
2024-01-22T07:43:12.662Z,2.80
2024-01-22T07:45:43.134Z,2.30
2024-01-22T07:48:13.860Z,3.30
2024-01-22T07:50:44.404Z,3.10
2024-01-22T07:53:14.893Z,2.50
2024-01-22T07:55:45.655Z,2.20
2024-01-22T07:58:17.998Z,5.70
2024-01-22T08:00:48.622Z,3.40
2024-01-22T08:03:19.280Z,4.00
2024-01-22T08:05:49.802Z,4.10
2024-01-22T08:08:20.893Z,2.60
2024-01-22T08:10:51.551Z,2.60
2024-01-22T08:13:22.734Z,4.20
2024-01-22T08:15:54.142Z,2.90
2024-01-22T08:18:24.817Z,2.40
2024-01-22T08:20:55.413Z,2.90
2024-01-22T08:23:26.563Z,3.90
2024-01-22T08:25:57.233Z,2.20
2024-01-22T08:28:27.871Z,3.30
2024-01-22T08:30:58.264Z,1.80
2024-01-22T08:33:28.821Z,2.50
2024-01-22T08:35:59.360Z,2.30
2024-01-22T08:38:29.832Z,2.90
2024-01-22T08:41:00.241Z,2.90
2024-01-22T08:43:30.655Z,4.10
2024-01-22T08:46:01.191Z,2.10
2024-01-22T08:48:31.947Z,4.90
2024-01-22T08:51:02.572Z,4.00
2024-01-22T08:53:33.004Z,2.50
2024-01-22T08:56:03.432Z,2.30
2024-01-22T08:58:33.859Z,2.40
2024-01-22T09:01:08.433Z,4.30
2024-01-22T09:03:39.888Z,2.70
2024-01-22T09:06:11.124Z,2.40
2024-01-22T09:08:44.606Z,2.00
2024-01-22T09:11:15.494Z,2.90
2024-01-22T09:13:47.160Z,1.70
2024-01-22T09:16:18.434Z,2.10
2024-01-22T09:18:49.820Z,2.00
2024-01-22T09:21:20.419Z,2.50
2024-01-22T09:23:50.891Z,2.20
2024-01-22T09:26:21.312Z,4.50
2024-01-22T09:28:51.935Z,2.50
2024-01-22T09:31:22.414Z,3.70
2024-01-22T09:33:55.258Z,2.00
2024-01-22T09:36:25.945Z,3.10
2024-01-22T09:38:56.474Z,1.90
2024-01-22T09:41:29.106Z,2.30
2024-01-22T09:43:59.766Z,1.80
2024-01-22T09:46:30.865Z,4.50
2024-01-22T09:49:01.544Z,2.80
2024-01-22T09:51:36.438Z,2.90
2024-01-22T09:54:11.393Z,2.80
2024-01-22T09:56:42.697Z,4.60
2024-01-22T09:59:20.843Z,1.90
2024-01-22T10:01:52.629Z,2.80
2024-01-22T10:04:24.891Z,2.30
2024-01-22T10:06:56.242Z,4.20
2024-01-22T10:09:26.865Z,1.90
2024-01-22T10:11:57.535Z,2.00
2024-01-22T10:14:36.156Z,1.60
2024-01-22T10:17:19.920Z,1.90
2024-01-22T10:19:53.047Z,2.30
2024-01-22T10:22:25.260Z,1.80
2024-01-22T10:25:03.915Z,2.60
2024-01-22T10:27:34.610Z,2.00
2024-01-22T10:30:15.243Z,1.90
2024-01-22T10:32:45.883Z,1.70
2024-01-22T10:35:26.554Z,1.90
2024-01-22T10:38:10.530Z,1.80
2024-01-22T10:40:42.341Z,1.50
2024-01-22T10:43:27.742Z,1.70
2024-01-22T10:46:00.550Z,2.20
2024-01-22T10:48:38.948Z,4.00
2024-01-22T10:51:15.637Z,3.40
2024-01-22T10:53:48.255Z,3.00
2024-01-22T10:56:24.718Z,2.00
2024-01-22T10:59:01.638Z,2.00
2024-01-22T11:01:34.391Z,3.00
2024-01-22T11:04:06.775Z,2.00
2024-01-22T11:06:42.296Z,2.50
2024-01-22T11:09:15.876Z,2.60
2024-01-22T11:11:49.237Z,2.40
2024-01-22T11:14:20.066Z,6.70
2024-01-22T11:16:50.771Z,1.70
2024-01-22T11:19:24.827Z,2.50
2024-01-22T11:21:57.432Z,4.20
2024-01-22T11:24:29.148Z,2.30
2024-01-22T11:27:09.948Z,2.30
2024-01-22T11:29:40.833Z,1.70
2024-01-22T11:32:30.544Z,2.60
2024-01-22T11:35:08.628Z,2.90
2024-01-22T11:37:45.782Z,2.60
2024-01-22T11:40:17.436Z,3.10
2024-01-22T11:42:48.152Z,2.80
2024-01-22T11:45:21.317Z,2.20
2024-01-22T11:47:55.985Z,3.20
2024-01-22T11:50:26.576Z,2.60
2024-01-22T11:53:02.579Z,2.00
2024-01-22T11:55:33.086Z,2.90
2024-01-22T11:58:04.136Z,2.90
2024-01-22T12:00:34.897Z,5.40
2024-01-22T12:03:05.650Z,3.20
2024-01-22T12:05:36.087Z,4.00
2024-01-22T12:08:13.557Z,4.20
2024-01-22T12:10:44.059Z,3.90
2024-01-22T12:13:17.375Z,3.60
2024-01-22T12:15:48.219Z,5.20
2024-01-22T12:18:25.888Z,2.40
2024-01-22T12:20:56.825Z,4.00
2024-01-22T12:23:35.263Z,6.30
2024-01-22T12:26:12.894Z,4.00
2024-01-22T12:28:45.144Z,3.60
2024-01-22T12:31:16.561Z,2.30
2024-01-22T12:33:47.154Z,3.60
2024-01-22T12:36:19.253Z,3.20
2024-01-22T12:38:55.006Z,3.50
2024-01-22T12:41:26.966Z,2.40
2024-01-22T12:43:59.851Z,4.90
2024-01-22T12:46:32.314Z,2.30
2024-01-22T12:49:05.047Z,4.20
2024-01-22T12:51:35.944Z,3.50
2024-01-22T12:54:08.139Z,5.70
2024-01-22T12:56:38.649Z,2.30
2024-01-22T12:59:09.113Z,2.30
2024-01-22T13:01:40.210Z,2.90
2024-01-22T13:04:10.748Z,3.00
2024-01-22T13:06:41.518Z,4.00
2024-01-22T13:09:14.105Z,3.90
2024-01-22T13:11:47.023Z,2.50
2024-01-22T13:14:18.032Z,2.10
2024-01-22T13:16:48.816Z,6.50
2024-01-22T13:19:19.401Z,2.80
2024-01-22T13:21:50.308Z,2.20
2024-01-22T13:24:21.475Z,2.60
2024-01-22T13:26:51.931Z,3.30
2024-01-22T13:29:22.645Z,3.30
2024-01-22T13:31:53.647Z,3.90
2024-01-22T13:34:25.252Z,3.40
2024-01-22T13:36:56.108Z,4.00
2024-01-22T13:39:26.677Z,5.50
2024-01-22T13:41:57.930Z,2.60
2024-01-22T13:44:28.405Z,3.00
2024-01-22T13:47:00.023Z,4.10
2024-01-22T13:49:30.499Z,6.80
2024-01-22T13:52:06.908Z,6.80
2024-01-22T13:54:38.608Z,3.70
2024-01-22T13:57:09.278Z,3.40
2024-01-22T13:59:40.553Z,3.00
2024-01-22T14:02:11.763Z,4.70
2024-01-22T14:04:44.276Z,4.10
2024-01-22T14:07:14.892Z,2.80
2024-01-22T14:09:45.839Z,2.90
2024-01-22T14:12:20.062Z,2.10
2024-01-22T14:14:51.048Z,3.40
2024-01-22T14:17:21.704Z,2.40
2024-01-22T14:19:52.630Z,3.50
2024-01-22T14:22:25.966Z,4.50
2024-01-22T14:24:57.281Z,3.20
2024-01-22T14:27:27.835Z,3.70
2024-01-22T14:29:58.393Z,10.20
2024-01-22T14:32:32.093Z,4.60
2024-01-22T14:35:03.394Z,5.80
2024-01-22T14:37:34.366Z,6.00
2024-01-22T14:40:07.179Z,2.30
2024-01-22T14:42:37.666Z,5.70
2024-01-22T14:45:09.954Z,4.30
2024-01-22T14:47:40.470Z,6.30
2024-01-22T14:50:13.045Z,5.40
2024-01-22T14:52:43.533Z,5.60
2024-01-22T14:55:14.072Z,4.90
2024-01-22T14:57:44.531Z,4.80
2024-01-22T15:00:17.019Z,5.40
2024-01-22T15:02:47.558Z,6.00
2024-01-22T15:05:19.500Z,6.50
2024-01-22T15:07:50.679Z,2.50
2024-01-22T15:10:21.994Z,4.20
2024-01-22T15:12:52.543Z,3.10
2024-01-22T15:15:23.002Z,6.40
2024-01-22T15:17:54.504Z,4.20
2024-01-22T15:20:25.450Z,6.70
2024-01-22T15:22:56.769Z,5.60
2024-01-22T15:25:27.381Z,8.60
2024-01-22T15:27:58.680Z,9.40
2024-01-22T15:30:29.510Z,5.10
2024-01-22T15:33:00.297Z,6.80
2024-01-22T15:35:32.848Z,10.70
2024-01-22T15:38:03.972Z,7.90
2024-01-22T15:40:34.807Z,7.60
2024-01-22T15:43:05.533Z,9.70
2024-01-22T15:45:37.317Z,9.60
2024-01-22T15:48:10.329Z,14.10
2024-01-22T15:50:40.990Z,8.00
2024-01-22T15:53:13.741Z,10.00
2024-01-22T15:55:46.902Z,11.90
2024-01-22T15:58:18.066Z,11.50
2024-01-22T16:00:48.511Z,9.00
2024-01-22T16:03:19.132Z,6.90
2024-01-22T16:05:49.954Z,13.70
2024-01-22T16:08:21.873Z,12.70
2024-01-22T16:10:52.545Z,12.60
2024-01-22T16:13:23.374Z,14.70
2024-01-22T16:15:54.458Z,11.00
2024-01-22T16:18:25.258Z,11.40
2024-01-22T16:20:56.262Z,8.80
2024-01-22T16:23:27.066Z,12.10
2024-01-22T16:25:57.666Z,10.60
2024-01-22T16:28:31.208Z,14.70
2024-01-22T16:31:01.652Z,7.90
2024-01-22T16:33:35.429Z,14.60
2024-01-22T16:36:08.106Z,11.10
2024-01-22T16:38:40.805Z,13.00
2024-01-22T16:41:12.688Z,10.30
2024-01-22T16:43:43.044Z,14.90
2024-01-22T16:46:13.460Z,14.20
2024-01-22T16:48:43.967Z,10.20
2024-01-22T16:51:14.533Z,10.80
2024-01-22T16:53:45.023Z,17.20
2024-01-22T16:56:15.572Z,12.20
2024-01-22T16:58:45.990Z,10.10
2024-01-22T17:01:17.837Z,8.80
2024-01-22T17:03:48.382Z,7.80
2024-01-22T17:06:22.123Z,10.90
2024-01-22T17:08:53.083Z,12.70
2024-01-22T17:11:24.298Z,14.00
2024-01-22T17:13:56.711Z,11.50
2024-01-22T17:16:27.560Z,10.10
2024-01-22T17:18:58.113Z,9.60
2024-01-22T17:21:29.386Z,17.80
2024-01-22T17:24:00.004Z,11.20
2024-01-22T17:26:30.579Z,10.50
2024-01-22T17:29:01.764Z,10.20
2024-01-22T17:31:32.433Z,16.90
2024-01-22T17:34:06.112Z,14.50
2024-01-22T17:36:37.738Z,14.90
2024-01-22T17:39:09.420Z,17.10
2024-01-22T17:41:40.370Z,8.30
2024-01-22T17:44:11.528Z,16.20
2024-01-22T17:46:44.802Z,15.60
2024-01-22T17:49:15.493Z,17.80
2024-01-22T17:51:46.157Z,17.40
2024-01-22T17:54:16.945Z,16.00
2024-01-22T17:56:47.517Z,19.20
2024-01-22T17:59:17.962Z,18.20
2024-01-22T18:01:48.913Z,16.90
2024-01-22T18:04:19.592Z,16.20
2024-01-22T18:06:50.199Z,13.20
2024-01-22T18:09:20.911Z,15.50
2024-01-22T18:11:52.299Z,9.90
2024-01-22T18:14:22.798Z,18.30
2024-01-22T18:16:53.219Z,16.10
2024-01-22T18:19:24.177Z,17.80
2024-01-22T18:21:54.741Z,16.50
2024-01-22T18:24:25.268Z,14.20
2024-01-22T18:26:55.806Z,15.20
2024-01-22T18:29:29.311Z,12.40
2024-01-22T18:32:00.205Z,17.20
2024-01-22T18:34:30.793Z,18.70
2024-01-22T18:37:02.740Z,23.90
2024-01-22T18:39:33.294Z,18.60
2024-01-22T18:42:03.948Z,14.40
2024-01-22T18:44:34.904Z,16.90
2024-01-22T18:47:05.771Z,27.00
2024-01-22T18:49:37.751Z,26.00
2024-01-22T18:52:09.037Z,18.00
2024-01-22T18:54:39.581Z,19.10
2024-01-22T18:57:10.833Z,15.50
2024-01-22T18:59:41.192Z,15.00
2024-01-22T19:02:14.855Z,23.70
2024-01-22T19:04:45.421Z,22.10
2024-01-22T19:07:16.335Z,45.50
2024-01-22T19:09:48.272Z,33.40
2024-01-22T19:12:19.087Z,30.80
2024-01-22T19:14:49.631Z,16.70
2024-01-22T19:17:20.214Z,11.80
2024-01-22T19:19:50.845Z,16.50
2024-01-22T19:22:21.589Z,15.50
2024-01-22T19:24:52.021Z,17.50
2024-01-22T19:27:22.733Z,10.10
2024-01-22T19:29:53.296Z,15.10
2024-01-22T19:32:23.794Z,12.90
2024-01-22T19:34:54.289Z,13.30
2024-01-22T19:37:24.716Z,14.80
2024-01-22T19:39:55.252Z,15.50
2024-01-22T19:42:27.996Z,19.30
2024-01-22T19:44:58.507Z,20.70
2024-01-22T19:47:29.941Z,14.60
2024-01-22T19:50:00.835Z,15.90
2024-01-22T19:52:31.526Z,15.00
2024-01-22T19:55:02.736Z,10.00
2024-01-22T19:57:33.437Z,13.80
2024-01-22T20:00:04.151Z,18.10
2024-01-22T20:02:34.614Z,21.40
2024-01-22T20:05:06.342Z,10.80
2024-01-22T20:07:36.794Z,15.80
2024-01-22T20:10:09.182Z,18.40
2024-01-22T20:12:39.608Z,13.00
2024-01-22T20:15:11.372Z,12.60
2024-01-22T20:17:41.963Z,12.20
2024-01-22T20:20:15.504Z,10.10
2024-01-22T20:22:46.133Z,15.40
2024-01-22T20:25:17.798Z,14.90
2024-01-22T20:27:48.288Z,16.20
2024-01-22T20:30:19.093Z,11.70
2024-01-22T20:32:49.683Z,17.00
2024-01-22T20:35:20.273Z,12.90
2024-01-22T20:37:50.637Z,14.00
2024-01-22T20:40:21.222Z,16.00
2024-01-22T20:42:51.584Z,18.70
2024-01-22T20:45:22.670Z,18.70
2024-01-22T20:47:54.265Z,16.80
2024-01-22T20:50:24.788Z,17.40
2024-01-22T20:52:55.155Z,11.60
2024-01-22T20:55:28.085Z,14.10
2024-01-22T20:57:58.733Z,14.90
2024-01-22T21:00:29.629Z,12.90
2024-01-22T21:03:00.243Z,14.90
2024-01-22T21:05:31.000Z,19.20
2024-01-22T21:08:01.486Z,18.90
2024-01-22T21:10:33.410Z,11.10
2024-01-22T21:13:04.114Z,16.90
2024-01-22T21:15:34.992Z,16.00
2024-01-22T21:18:08.463Z,12.70
2024-01-22T21:20:39.674Z,16.80
2024-01-22T21:23:10.823Z,16.20
2024-01-22T21:25:41.241Z,16.80
2024-01-22T21:28:11.661Z,13.30
2024-01-22T21:30:44.395Z,24.10
2024-01-22T21:33:18.603Z,17.00
2024-01-22T21:35:52.948Z,12.90
2024-01-22T21:38:23.359Z,15.80
2024-01-22T21:40:53.857Z,10.30
2024-01-22T21:43:24.235Z,12.10
2024-01-22T21:45:54.613Z,8.60
2024-01-22T21:48:25.287Z,12.20
2024-01-22T21:50:56.084Z,6.60
2024-01-22T21:53:26.549Z,8.80
2024-01-22T21:55:57.119Z,11.00
2024-01-22T21:58:28.353Z,4.70
2024-01-22T22:00:59.077Z,9.10
2024-01-22T22:03:30.849Z,6.90
2024-01-22T22:06:02.139Z,6.20
2024-01-22T22:08:35.547Z,6.50
2024-01-22T22:11:08.538Z,8.60
2024-01-22T22:13:38.948Z,8.10
2024-01-22T22:16:10.689Z,9.10
2024-01-22T22:18:43.558Z,5.70
2024-01-22T22:21:14.624Z,12.40
2024-01-22T22:23:45.477Z,10.70
2024-01-22T22:26:16.177Z,6.10
2024-01-22T22:28:46.531Z,7.40
2024-01-22T22:31:16.937Z,7.20
2024-01-22T22:33:47.419Z,5.30
2024-01-22T22:36:18.657Z,2.30
2024-01-22T22:38:49.221Z,3.90
2024-01-22T22:41:19.626Z,5.30
2024-01-22T22:43:50.031Z,4.10
2024-01-22T22:46:20.361Z,4.70
2024-01-22T22:48:51.074Z,7.40
2024-01-22T22:51:22.214Z,9.50
2024-01-22T22:53:53.051Z,12.30
2024-01-22T22:56:23.456Z,3.80
2024-01-22T22:58:54.351Z,6.70
2024-01-22T23:01:24.858Z,9.60
2024-01-22T23:03:57.838Z,5.10
2024-01-22T23:06:29.817Z,8.00
2024-01-22T23:09:00.518Z,12.50
2024-01-22T23:11:31.085Z,13.00
2024-01-22T23:14:01.804Z,14.00
2024-01-22T23:16:32.486Z,13.40
2024-01-22T23:19:03.841Z,12.10
2024-01-22T23:21:37.044Z,8.50
2024-01-22T23:24:09.075Z,15.30
2024-01-22T23:26:39.925Z,9.60
2024-01-22T23:29:10.327Z,9.60
2024-01-22T23:31:41.152Z,14.40
2024-01-22T23:34:12.104Z,18.70
2024-01-22T23:36:42.671Z,14.20
2024-01-22T23:39:13.593Z,14.50
2024-01-22T23:41:44.453Z,16.40
2024-01-22T23:44:14.916Z,10.10
2024-01-22T23:46:45.536Z,12.20
2024-01-22T23:49:16.345Z,11.30
2024-01-22T23:51:46.985Z,13.10
2024-01-22T23:54:17.449Z,13.80
2024-01-22T23:56:47.956Z,16.70
2024-01-22T23:59:18.443Z,13.40
